Time;durP1;ratioP1;P1;durP2;ratioP2;P2;SDS_P1;SDS_P2;PMS_P1;PMS_P2;Temp;Humidity;BMP_temperature;BMP_pressure;BME280_temperature;BME280_humidity;BME280_pressure;Samples;Min_cycle;Max_cycle;Signal;HPM_P1;HPM_P2
2021/10/05 00:02:15;;;;;;;11.20;5.47;;;;;;;11.61;100.00;98352.28;5069211;28;20021;-68
2021/10/05 00:04:40;;;;;;;11.50;4.32;;;;;;;11.67;100.00;98351.31;5073181;28;20076;-68
2021/10/05 00:07:06;;;;;;;8.07;4.32;;;;;;;11.67;100.00;98354.78;5071643;28;20081;-68
2021/10/05 00:09:31;;;;;;;9.18;4.45;;;;;;;11.67;100.00;98351.31;5065981;28;20017;-68
2021/10/05 00:11:57;;;;;;;7.30;4.50;;;;;;;11.65;100.00;98361.91;5077834;28;20044;-68
2021/10/05 00:14:22;;;;;;;7.07;4.10;;;;;;;11.62;100.00;98348.81;5065876;28;20033;-68
2021/10/05 00:16:49;;;;;;;8.45;3.65;;;;;;;11.62;100.00;98358.47;5076834;28;20024;-68
2021/10/05 00:19:16;;;;;;;8.93;3.83;;;;;;;11.51;100.00;98353.47;5068515;28;20315;-68
2021/10/05 00:21:41;;;;;;;12.73;3.80;;;;;;;11.56;100.00;98348.94;5066802;28;20025;-68
2021/10/05 00:24:07;;;;;;;5.90;3.80;;;;;;;11.55;100.00;98346.34;5081832;28;20013;-68
2021/10/05 00:26:32;;;;;;;7.25;4.70;;;;;;;11.45;100.00;98355.41;5076319;28;20107;-68
2021/10/05 00:28:58;;;;;;;10.15;4.38;;;;;;;11.54;100.00;98347.22;5078449;28;20021;-68
2021/10/05 00:31:23;;;;;;;6.32;3.65;;;;;;;11.56;100.00;98348.94;5081972;28;20032;-68
2021/10/05 00:33:48;;;;;;;14.07;4.53;;;;;;;11.55;100.00;98349.81;5070683;28;20024;-68
2021/10/05 00:36:14;;;;;;;13.90;4.00;;;;;;;11.58;100.00;98344.47;5081637;28;20024;-68
2021/10/05 00:38:39;;;;;;;6.43;3.78;;;;;;;11.58;100.00;98341.84;5075550;28;20039;-68
2021/10/05 00:41:04;;;;;;;6.68;4.03;;;;;;;11.53;100.00;98349.03;5080353;28;20027;-68
2021/10/05 00:43:30;;;;;;;5.65;3.38;;;;;;;11.47;100.00;98337.78;5075197;28;20288;-68
2021/10/05 00:45:55;;;;;;;5.57;3.70;;;;;;;11.37;100.00;98337.19;5079506;28;20017;-68
2021/10/05 00:48:21;;;;;;;10.35;4.50;;;;;;;11.41;100.00;98327.41;5072252;28;20055;-68
2021/10/05 00:50:47;;;;;;;11.55;4.95;;;;;;;11.46;100.00;98315.84;5071670;28;20024;-68
2021/10/05 00:53:14;;;;;;;11.85;5.05;;;;;;;11.38;100.00;98317.81;5080045;28;20025;-68
2021/10/05 00:55:40;;;;;;;16.95;5.85;;;;;;;11.40;100.00;98313.38;5075031;28;20021;-68
2021/10/05 00:58:05;;;;;;;9.23;4.90;;;;;;;11.35;100.00;98312.63;5071510;28;20381;-68
2021/10/05 01:00:30;;;;;;;12.65;5.43;;;;;;;11.39;100.00;98309.00;5076049;28;20032;-68
2021/10/05 01:02:57;;;;;;;8.38;4.90;;;;;;;11.39;100.00;98301.09;5083115;28;20020;-68
2021/10/05 01:05:22;;;;;;;9.15;5.22;;;;;;;11.40;100.00;98302.84;5074948;28;20045;-68
2021/10/05 01:07:49;;;;;;;9.48;5.25;;;;;;;11.43;100.00;98291.34;5081558;28;20024;-68
2021/10/05 01:10:17;;;;;;;9.05;4.63;;;;;;;11.50;100.00;98299.03;5074874;28;20021;-68
2021/10/05 01:12:52;;;;;;;7.70;4.50;;;;;;;11.50;100.00;98288.50;5078453;28;20090;-68
2021/10/05 01:15:22;;;;;;;11.27;5.00;;;;;;;11.56;100.00;98287.44;5072021;28;20016;-68
2021/10/05 01:17:48;;;;;;;8.98;5.05;;;;;;;11.53;100.00;98280.50;5073723;28;20084;-68
2021/10/05 01:20:14;;;;;;;8.48;4.38;;;;;;;11.57;100.00;98284.75;5075647;28;20028;-68
2021/10/05 01:22:40;;;;;;;6.25;4.25;;;;;;;11.59;100.00;98285.59;5074960;28;20047;-68
2021/10/05 01:25:11;;;;;;;8.50;4.10;;;;;;;11.50;100.00;98275.31;5071933;28;20024;-68
2021/10/05 01:27:54;;;;;;;9.17;4.17;;;;;;;11.45;100.00;98265.81;5075503;28;20050;-68
2021/10/05 01:30:22;;;;;;;7.47;4.05;;;;;;;11.47;100.00;98272.75;5078573;28;20020;-68
2021/10/05 01:32:48;;;;;;;5.07;3.72;;;;;;;11.52;100.00;98267.38;5074208;28;20024;-68
2021/10/05 01:35:14;;;;;;;8.15;4.80;;;;;;;11.55;100.00;98272.53;5070820;28;20080;-68
2021/10/05 01:37:40;;;;;;;9.23;4.10;;;;;;;11.59;100.00;98275.06;5065601;28;20099;-68
2021/10/05 01:40:08;;;;;;;6.57;3.72;;;;;;;11.62;100.00;98274.13;5069167;28;20028;-68
2021/10/05 01:42:34;;;;;;;7.13;3.50;;;;;;;11.61;100.00;98272.38;5071797;28;20028;-68
2021/10/05 01:44:59;;;;;;;9.20;4.10;;;;;;;11.61;100.00;98272.38;5082535;28;20072;-68
2021/10/05 01:47:25;;;;;;;5.25;3.17;;;;;;;11.58;100.00;98257.50;5082119;28;20051;-68
2021/10/05 01:49:51;;;;;;;5.85;4.32;;;;;;;11.48;100.00;98250.75;5080528;28;20048;-68
2021/10/05 01:52:16;;;;;;;12.07;4.03;;;;;;;11.46;100.00;98242.06;5072936;28;20016;-68
2021/10/05 01:54:42;;;;;;;8.43;3.92;;;;;;;11.56;100.00;98237.38;5078271;28;20074;-68
2021/10/05 01:57:07;;;;;;;10.77;4.88;;;;;;;11.43;100.00;98228.09;5069034;28;20024;-68
2021/10/05 01:59:33;;;;;;;7.93;4.05;;;;;;;11.42;100.00;98219.31;5066874;28;20105;-68
2021/10/05 02:01:59;;;;;;;8.45;4.93;;;;;;;11.35;100.00;98237.97;5069144;28;20047;-68
2021/10/05 02:04:24;;;;;;;7.97;4.63;;;;;;;11.36;100.00;98223.91;5079537;28;20044;-68
2021/10/05 02:06:49;;;;;;;7.30;4.53;;;;;;;11.34;100.00;98216.06;5069343;28;20032;-68
2021/10/05 02:09:15;;;;;;;7.32;4.65;;;;;;;11.44;100.00;98217.50;5076153;28;20247;-68
2021/10/05 02:11:41;;;;;;;9.45;4.00;;;;;;;11.46;100.00;98225.38;5074783;28;20088;-68
2021/10/05 02:14:07;;;;;;;10.90;4.05;;;;;;;11.44;100.00;98220.16;5077517;28;20025;-68
2021/10/05 02:16:33;;;;;;;8.05;5.07;;;;;;;11.46;100.00;98215.72;5075400;28;20020;-68
2021/10/05 02:18:59;;;;;;;6.63;4.40;;;;;;;11.51;100.00;98216.41;5075626;28;20307;-68
2021/10/05 02:21:25;;;;;;;7.25;3.70;;;;;;;11.53;100.00;98211.97;5073336;28;20028;-68
2021/10/05 02:26:34;;;;;;;6.10;4.03;;;;;;;11.54;100.00;98211.06;5067117;28;20204;-68
2021/10/05 02:29:01;;;;;;;7.03;4.10;;;;;;;11.60;100.00;98202.09;5070032;28;20017;-68
2021/10/05 02:31:27;;;;;;;7.82;4.80;;;;;;;11.53;100.00;98200.56;5080898;28;20099;-68
2021/10/05 02:33:52;;;;;;;8.15;4.25;;;;;;;11.50;100.00;98198.88;5080311;28;20017;-68
2021/10/05 02:36:18;;;;;;;6.85;4.93;;;;;;;11.54;100.00;98197.00;5076579;28;20020;-68
2021/10/05 02:38:44;;;;;;;6.55;4.32;;;;;;;11.53;100.00;98196.16;5077159;28;20051;-68
2021/10/05 02:41:09;;;;;;;7.78;4.47;;;;;;;11.50;100.00;98206.78;5081129;28;20054;-68
2021/10/05 02:43:35;;;;;;;5.47;3.67;;;;;;;11.52;100.00;98204.94;5069293;28;20017;-68
2021/10/05 02:46:00;;;;;;;12.95;5.07;;;;;;;11.55;100.00;98212.78;5081062;28;20024;-68
2021/10/05 02:48:26;;;;;;;6.95;4.18;;;;;;;11.60;100.00;98208.25;5076202;28;20099;-68
2021/10/05 02:50:51;;;;;;;10.73;4.68;;;;;;;11.51;100.00;98212.91;5071561;28;20326;-68
2021/10/05 02:53:17;;;;;;;6.60;3.97;;;;;;;11.53;100.00;98205.81;5076574;28;20024;-68
2021/10/05 02:55:43;;;;;;;7.57;4.30;;;;;;;11.54;100.00;98205.78;5079727;28;20023;-68
2021/10/05 02:58:09;;;;;;;7.55;4.07;;;;;;;11.56;100.00;98201.34;5077817;28;20062;-68
2021/10/05 03:00:35;;;;;;;6.28;4.30;;;;;;;11.54;100.00;98203.16;5082434;28;20027;-68
2021/10/05 03:03:00;;;;;;;7.95;4.35;;;;;;;11.59;100.00;98195.09;5079604;28;20016;-68
2021/10/05 03:05:25;;;;;;;9.13;4.50;;;;;;;11.62;100.00;98201.19;5079515;28;20024;-68
2021/10/05 03:07:51;;;;;;;9.40;4.53;;;;;;;11.61;100.00;98194.13;5070407;28;20013;-68
2021/10/05 03:10:17;;;;;;;10.43;4.20;;;;;;;11.58;100.00;98188.13;5066619;28;20216;-68
2021/10/05 03:12:42;;;;;;;14.85;4.88;;;;;;;11.51;100.00;98181.28;5080931;28;20295;-68
2021/10/05 03:15:08;;;;;;;8.43;4.72;;;;;;;11.56;100.00;98187.28;5080791;28;20311;-68
2021/10/05 03:17:34;;;;;;;7.85;5.15;;;;;;;11.49;100.00;98191.91;5080123;28;20083;-68
2021/10/05 03:19:59;;;;;;;9.95;4.95;;;;;;;11.44;100.00;98185.88;5066198;28;21222;-68
2021/10/05 03:22:24;;;;;;;9.25;5.78;;;;;;;11.42;100.00;98187.69;5076473;28;20050;-68
2021/10/05 03:24:50;;;;;;;8.88;5.32;;;;;;;11.39;100.00;98181.66;5067259;28;20016;-68
2021/10/05 03:27:15;;;;;;;10.15;5.57;;;;;;;11.37;100.00;98173.81;5073595;28;20357;-68
2021/10/05 03:29:41;;;;;;;9.73;5.15;;;;;;;11.42;100.00;98171.88;5076504;28;20083;-68
2021/10/05 03:32:07;;;;;;;7.38;5.20;;;;;;;11.48;100.00;98166.44;5074662;28;20016;-68
2021/10/05 03:34:32;;;;;;;8.32;4.60;;;;;;;11.52;100.00;98157.50;5077139;28;20025;-68
2021/10/05 03:36:58;;;;;;;9.63;4.75;;;;;;;11.52;100.00;98154.88;5066273;28;20020;-68
2021/10/05 03:39:23;;;;;;;13.88;6.22;;;;;;;11.35;100.00;98140.50;5070201;28;20316;-68
2021/10/05 03:41:49;;;;;;;8.75;5.05;;;;;;;11.41;100.00;98143.81;5070063;28;20184;-68
2021/10/05 03:44:15;;;;;;;10.15;6.38;;;;;;;11.44;100.00;98154.25;5080358;28;20335;-68
2021/10/05 03:46:40;;;;;;;8.77;5.72;;;;;;;11.44;100.00;98154.25;5078364;28;20032;-68
2021/10/05 03:49:05;;;;;;;13.98;6.95;;;;;;;11.38;100.00;98151.81;5070157;28;20383;-68
2021/10/05 03:51:31;;;;;;;9.57;6.00;;;;;;;11.41;100.00;98146.44;5077615;28;20052;-68
2021/10/05 03:53:57;;;;;;;10.10;5.53;;;;;;;11.38;100.00;98145.66;5064903;28;20021;-68
2021/10/05 03:56:23;;;;;;;9.68;6.15;;;;;;;11.37;100.00;98131.66;5072510;28;20028;-68
2021/10/05 03:58:48;;;;;;;8.48;5.47;;;;;;;11.45;100.00;98134.91;5071066;28;20017;-68
2021/10/05 04:01:14;;;;;;;10.15;6.00;;;;;;;11.49;100.00;98131.28;5070243;28;20024;-68
2021/10/05 04:03:41;;;;;;;11.35;6.03;;;;;;;11.50;100.00;98132.13;5083644;28;20048;-68
2021/10/05 04:06:07;;;;;;;13.55;6.88;;;;;;;11.52;100.00;98131.16;5073846;28;20024;-68
2021/10/05 04:08:32;;;;;;;10.00;6.93;;;;;;;11.49;100.00;98130.41;5083174;28;20223;-68
2021/10/05 04:10:58;;;;;;;11.30;6.90;;;;;;;11.49;100.00;98128.66;5083953;28;20021;-68
2021/10/05 04:13:23;;;;;;;9.68;6.45;;;;;;;11.52;100.00;98131.16;5078093;28;20092;-68
2021/10/05 04:15:49;;;;;;;10.82;6.82;;;;;;;11.48;100.00;98131.34;5079553;28;20021;-68
2021/10/05 04:18:14;;;;;;;11.65;7.38;;;;;;;11.48;100.00;98129.53;5087155;28;20020;-68
2021/10/05 04:20:40;;;;;;;11.90;8.10;;;;;;;11.48;100.00;98112.88;5086457;28;20262;-68
2021/10/05 04:23:05;;;;;;;8.98;5.80;;;;;;;11.37;100.00;98110.56;5087559;28;20021;-68
2021/10/05 04:25:30;;;;;;;10.27;6.72;;;;;;;11.30;100.00;98109.03;5087483;28;20087;-68
2021/10/05 04:27:56;;;;;;;8.88;6.15;;;;;;;11.33;100.00;98108.91;5087468;28;20079;-68
2021/10/05 04:30:21;;;;;;;12.93;7.07;;;;;;;11.28;100.00;98099.44;5087409;28;20020;-68
2021/10/05 04:32:47;;;;;;;11.93;6.90;;;;;;;11.31;100.00;98094.94;5087306;28;20091;-68
2021/10/05 04:35:12;;;;;;;11.85;7.25;;;;;;;11.31;100.00;98101.97;5086155;28;20028;-68
2021/10/05 04:37:38;;;;;;;12.30;7.38;;;;;;;11.35;100.00;98099.22;5087255;28;20024;-68
2021/10/05 04:40:05;;;;;;;11.07;7.18;;;;;;;11.37;100.00;98100.03;5086061;28;20219;-68
2021/10/05 04:42:31;;;;;;;12.93;7.70;;;;;;;11.37;100.00;98092.13;5087114;28;20028;-68
2021/10/05 04:44:57;;;;;;;14.40;8.38;;;;;;;11.38;100.00;98091.22;5087104;28;20207;-68
2021/10/05 04:47:23;;;;;;;13.90;8.48;;;;;;;11.40;100.00;98094.69;5087067;28;20028;-68
2021/10/05 04:49:48;;;;;;;14.27;8.55;;;;;;;11.42;100.00;98087.56;5087005;28;20032;-68
2021/10/05 04:52:14;;;;;;;11.88;7.65;;;;;;;11.49;100.00;98089.13;5086990;28;20020;-68
2021/10/05 04:54:39;;;;;;;12.50;7.70;;;;;;;11.50;100.00;98090.84;5086882;28;20368;-68
2021/10/05 04:57:04;;;;;;;14.32;8.32;;;;;;;11.53;100.00;98096.00;5086906;28;20029;-68
2021/10/05 04:59:32;;;;;;;14.35;8.13;;;;;;;11.57;100.00;98089.72;5086836;28;20079;-68
2021/10/05 05:01:57;;;;;;;14.05;8.27;;;;;;;11.57;100.00;98087.09;5086798;28;20334;-68
2021/10/05 05:04:23;;;;;;;20.40;8.50;;;;;;;11.51;100.00;98089.03;5086550;28;20040;-68
2021/10/05 05:06:48;;;;;;;13.13;8.82;;;;;;;11.52;100.00;98081.09;5085584;28;20028;-68
2021/10/05 05:09:13;;;;;;;11.18;7.47;;;;;;;11.56;100.00;98084.50;5086553;28;20024;-68
2021/10/05 05:11:39;;;;;;;16.75;9.45;;;;;;;11.46;100.00;98083.94;5085498;28;20354;-68
2021/10/05 05:14:07;;;;;;;13.57;8.30;;;;;;;11.50;100.00;98089.97;5086520;28;20032;-68
2021/10/05 05:16:34;;;;;;;10.88;7.38;;;;;;;11.52;100.00;98083.72;5086533;28;20088;-68
2021/10/05 05:19:00;;;;;;;10.38;6.90;;;;;;;11.52;100.00;98078.44;5086484;28;20039;-68
2021/10/05 05:21:27;;;;;;;12.70;8.55;;;;;;;11.50;100.00;98080.28;5086428;28;20049;-68
2021/10/05 05:23:52;;;;;;;14.52;8.70;;;;;;;11.47;100.00;98074.25;5086447;28;20075;-68
2021/10/05 05:26:18;;;;;;;17.58;8.55;;;;;;;11.48;100.00;98074.19;5086381;28;20027;-68
2021/10/05 05:28:43;;;;;;;12.25;8.40;;;;;;;11.48;100.00;98076.84;5085197;28;20183;-68
2021/10/05 05:31:08;;;;;;;14.18;8.75;;;;;;;11.57;100.00;98070.41;5086280;28;20020;-68
2021/10/05 05:33:34;;;;;;;12.57;8.25;;;;;;;11.58;100.00;98059.81;5086204;28;20032;-68
2021/10/05 05:35:59;;;;;;;15.45;9.65;;;;;;;11.63;100.00;98059.69;5086223;28;20048;-68
2021/10/05 05:38:26;;;;;;;14.70;9.45;;;;;;;11.61;100.00;98064.16;5086162;28;20367;-68
2021/10/05 05:40:52;;;;;;;13.70;8.88;;;;;;;11.58;100.00;98056.34;5084919;28;20082;-68
2021/10/05 05:43:17;;;;;;;15.93;9.38;;;;;;;11.53;100.00;98059.13;5086061;28;20078;-68
2021/10/05 05:45:43;;;;;;;14.32;8.93;;;;;;;11.56;100.00;98061.66;5086070;28;20328;-68
2021/10/05 05:48:08;;;;;;;14.75;9.43;;;;;;;11.53;100.00;98059.13;5085969;28;20021;-68
2021/10/05 05:50:34;;;;;;;16.02;9.18;;;;;;;11.55;100.00;98052.00;5084756;28;20020;-68
2021/10/05 05:52:59;;;;;;;12.80;9.18;;;;;;;11.61;100.00;98043.91;5085810;28;20024;-68
2021/10/05 05:55:24;;;;;;;14.85;9.65;;;;;;;11.63;100.00;98050.03;5085836;28;20070;-68
2021/10/05 05:57:51;;;;;;;14.50;8.20;;;;;;;11.69;100.00;98049.81;5085783;28;20021;-68
2021/10/05 06:00:18;;;;;;;11.40;7.70;;;;;;;11.74;100.00;98053.16;5085735;28;20054;-67
2021/10/05 06:02:44;;;;;;;13.82;7.97;;;;;;;11.78;100.00;98054.81;5085693;28;20028;-67
2021/10/05 06:05:10;;;;;;;15.05;8.45;;;;;;;11.81;100.00;98054.69;5085441;28;20109;-67
2021/10/05 06:07:35;;;;;;;12.15;7.85;;;;;;;11.84;100.00;98048.44;5085614;28;20035;-67
2021/10/05 06:10:01;;;;;;;14.27;8.55;;;;;;;11.86;100.00;98042.22;5085519;28;20334;-67
2021/10/05 06:12:37;;;;;;;10.88;7.82;;;;;;;11.87;100.00;98033.38;5084336;28;20095;-67
2021/10/05 06:15:07;;;;;;;15.40;9.45;;;;;;;11.81;100.00;98046.78;5085396;28;20048;-67
2021/10/05 06:17:33;;;;;;;12.77;8.57;;;;;;;11.87;100.00;98043.09;5085414;28;20196;-67
2021/10/05 06:19:58;;;;;;;19.65;9.05;;;;;;;11.95;100.00;98041.03;5085335;28;20089;-67
2021/10/05 06:22:23;;;;;;;12.75;8.25;;;;;;;11.98;100.00;98036.53;5084669;28;20095;-67
2021/10/05 06:24:49;;;;;;;13.68;8.55;;;;;;;11.93;100.00;98038.44;5085212;28;20016;-67
2021/10/05 06:27:15;;;;;;;14.40;8.80;;;;;;;11.90;100.00;98043.81;5085496;28;20203;-67
2021/10/05 06:29:40;;;;;;;13.27;9.18;;;;;;;11.96;100.00;98038.34;5083976;28;20028;-67
2021/10/05 06:32:06;;;;;;;16.45;9.02;;;;;;;11.96;100.00;98037.50;5083918;28;20024;-67
2021/10/05 06:34:31;;;;;;;12.77;7.65;;;;;;;12.02;100.00;98032.84;5084969;28;20024;-67
2021/10/05 06:36:56;;;;;;;12.90;8.50;;;;;;;12.01;100.00;98025.88;5084994;28;20315;-67
2021/10/05 06:39:22;;;;;;;12.82;7.95;;;;;;;12.03;100.00;98034.59;5084948;28;20016;-67
2021/10/05 06:41:47;;;;;;;9.25;6.20;;;;;;;12.12;100.00;98028.16;5084952;28;20285;-67
2021/10/05 06:44:13;;;;;;;9.60;5.85;;;;;;;12.18;100.00;98018.22;5084849;28;20080;-67
2021/10/05 06:46:38;;;;;;;9.60;6.38;;;;;;;12.28;100.00;98019.59;5084788;28;20028;-67
2021/10/05 06:49:04;;;;;;;11.75;7.15;;;;;;;12.23;100.00;98025.97;5084753;28;20020;-67
2021/10/05 06:51:29;;;;;;;10.93;7.15;;;;;;;12.23;100.00;98010.16;5084722;28;20024;-67
2021/10/05 06:53:55;;;;;;;9.73;6.40;;;;;;;12.29;100.00;98007.28;5084562;28;20028;-67
2021/10/05 06:56:20;;;;;;;11.35;7.32;;;;;;;12.26;100.00;98016.19;5084645;28;20227;-67
2021/10/05 06:58:45;;;;;;;11.10;6.72;;;;;;;12.36;100.00;98006.16;5084592;28;20017;-67
2021/10/05 07:01:11;;;;;;;11.23;6.65;;;;;;;12.36;99.88;98012.28;5084549;28;20091;-67
2021/10/05 07:03:36;;;;;;;14.55;7.53;;;;;;;12.32;100.00;98009.81;5083094;28;20108;-67
2021/10/05 07:06:02;;;;;;;9.13;6.13;;;;;;;12.44;100.00;98012.84;5084506;28;20024;-67
2021/10/05 07:08:27;;;;;;;11.75;6.85;;;;;;;12.52;100.00;98010.81;5084446;28;20062;-67
2021/10/05 07:10:52;;;;;;;11.45;7.38;;;;;;;12.53;99.53;98015.16;5083249;28;20066;-67
2021/10/05 07:13:18;;;;;;;10.63;7.07;;;;;;;12.60;99.37;98021.94;5084268;28;20223;-67
2021/10/05 07:15:43;;;;;;;10.32;6.22;;;;;;;12.71;99.58;98011.84;5084338;28;20315;-67
2021/10/05 07:18:09;;;;;;;8.65;6.07;;;;;;;12.77;99.30;98008.97;5084297;28;20028;-67
2021/10/05 07:20:34;;;;;;;8.75;4.38;;;;;;;12.83;98.18;98011.41;5084260;28;20083;-67
2021/10/05 07:23:00;;;;;;;6.88;4.72;;;;;;;12.86;97.95;98002.50;5083048;28;20028;-67
2021/10/05 07:25:30;;;;;;;8.07;4.68;;;;;;;12.96;98.17;98004.72;5083040;28;20024;-67
2021/10/05 07:27:55;;;;;;;6.55;4.50;;;;;;;12.99;97.45;97999.34;5083019;28;20028;-67
2021/10/05 07:30:25;;;;;;;5.22;3.75;;;;;;;12.93;97.18;97999.56;5082996;28;20304;-67
2021/10/05 07:32:58;;;;;;;5.60;2.95;;;;;;;12.86;96.70;98000.72;5083492;28;20338;-67
2021/10/05 07:35:24;;;;;;;5.55;3.40;;;;;;;13.00;96.22;97989.63;5084053;28;20250;-67
2021/10/05 07:37:50;;;;;;;4.43;2.92;;;;;;;13.02;95.92;97988.66;5084081;28;20315;-67
2021/10/05 07:40:18;;;;;;;4.82;3.15;;;;;;;13.23;95.75;97994.00;5084042;28;20024;-67
2021/10/05 07:42:44;;;;;;;6.47;2.20;;;;;;;13.27;95.36;97992.97;5083959;28;20020;-67
2021/10/05 07:45:09;;;;;;;4.57;3.03;;;;;;;13.39;94.96;97987.19;5084005;28;20219;-67
2021/10/05 07:47:35;;;;;;;4.43;2.70;;;;;;;13.50;93.66;97993.75;5082781;28;20029;-67
2021/10/05 07:50:00;;;;;;;4.65;2.78;;;;;;;13.48;92.95;97990.31;5083890;28;20020;-67
2021/10/05 07:52:26;;;;;;;4.03;3.03;;;;;;;13.65;93.16;97994.91;5082762;28;20020;-67
2021/10/05 07:54:51;;;;;;;4.45;3.15;;;;;;;13.59;93.24;98003.09;5083838;28;20028;-67
2021/10/05 07:57:16;;;;;;;5.78;3.25;;;;;;;13.67;93.87;98001.00;5083870;28;20096;-67
2021/10/05 07:59:42;;;;;;;5.35;3.25;;;;;;;13.69;94.85;98001.78;5083839;28;20035;-67
2021/10/05 08:02:07;;;;;;;5.03;3.38;;;;;;;13.67;94.55;98008.94;5082681;28;20021;-67
2021/10/05 08:04:33;;;;;;;5.22;3.25;;;;;;;13.64;94.24;98003.78;5083579;28;20040;-67
2021/10/05 08:06:58;;;;;;;4.20;2.85;;;;;;;13.73;93.76;98003.41;5083795;28;20024;-67
2021/10/05 08:09:23;;;;;;;4.97;3.35;;;;;;;13.81;93.38;98001.28;5083768;28;20315;-67
2021/10/05 08:11:49;;;;;;;7.78;4.82;;;;;;;13.76;92.23;98003.28;5083730;28;20067;-67
2021/10/05 08:14:14;;;;;;;5.35;3.00;;;;;;;13.78;92.04;98001.41;5082469;28;20308;-67
2021/10/05 08:16:40;;;;;;;5.18;2.80;;;;;;;14.07;92.06;97993.94;5082522;28;20029;-67
2021/10/05 08:19:05;;;;;;;5.43;2.70;;;;;;;14.06;91.79;97996.66;5083646;28;20021;-67
2021/10/05 08:21:32;;;;;;;4.95;2.75;;;;;;;15.07;89.12;97984.97;5083661;28;20079;-67
2021/10/05 08:23:57;;;;;;;4.65;2.67;;;;;;;15.56;84.71;97972.88;5083587;28;20025;-67
2021/10/05 08:26:23;;;;;;;3.63;2.35;;;;;;;16.31;83.29;97968.97;5083559;28;20024;-67
2021/10/05 08:28:50;;;;;;;3.30;1.98;;;;;;;16.57;79.92;97971.97;5083566;28;20032;-67
2021/10/05 08:31:18;;;;;;;4.72;2.40;;;;;;;16.11;80.87;97959.38;5083526;28;20320;-67
2021/10/05 08:33:44;;;;;;;5.78;2.20;;;;;;;16.49;78.67;97957.41;5083439;28;20025;-67
2021/10/05 08:36:09;;;;;;;3.67;2.05;;;;;;;16.78;78.03;97952.22;5083503;28;20117;-67
2021/10/05 08:38:36;;;;;;;3.75;2.20;;;;;;;16.77;77.31;97945.19;5083453;28;20020;-67
2021/10/05 08:41:04;;;;;;;4.13;2.72;;;;;;;15.97;78.60;97943.31;5083426;28;20031;-67
2021/10/05 08:43:30;;;;;;;3.95;2.20;;;;;;;15.92;79.44;97949.78;5083425;28;20360;-67
2021/10/05 08:45:59;;;;;;;5.18;2.60;;;;;;;15.45;80.09;97959.28;5085137;28;20044;-67
2021/10/05 08:48:29;;;;;;;3.78;2.47;;;;;;;15.78;80.23;97963.75;5087120;28;20028;-67
2021/10/05 08:50:55;;;;;;;3.00;2.25;;;;;;;16.26;78.49;97966.53;5087027;28;20200;-67
2021/10/05 08:53:20;;;;;;;3.33;2.25;;;;;;;16.78;78.24;97954.88;5086895;28;20031;-67
2021/10/05 08:55:45;;;;;;;4.72;2.67;;;;;;;16.00;79.13;97952.91;5085804;28;20031;-67
2021/10/05 08:58:11;;;;;;;3.72;2.42;;;;;;;16.10;79.86;97960.31;5086915;28;20029;-67
2021/10/05 09:00:38;;;;;;;4.70;2.33;;;;;;;16.44;78.14;97962.97;5086886;28;20059;-67
2021/10/05 09:03:03;;;;;;;5.25;2.30;;;;;;;17.00;75.93;97955.41;5086812;28;20021;-67
2021/10/05 09:05:29;;;;;;;4.72;2.42;;;;;;;16.41;76.61;97957.78;5086658;28;20036;-67
2021/10/05 09:07:58;;;;;;;5.18;2.17;;;;;;;16.16;78.25;97960.00;5086754;28;20047;-67
2021/10/05 09:10:27;;;;;;;4.00;2.38;;;;;;;16.26;78.15;97955.91;5086713;28;20048;-67
2021/10/05 09:12:54;;;;;;;4.55;2.63;;;;;;;16.16;80.26;97944.06;5086649;28;20287;-67
2021/10/05 09:15:21;;;;;;;4.45;2.03;;;;;;;16.40;80.27;97958.72;5086539;28;20024;-67
2021/10/05 09:17:56;;;;;;;3.67;2.20;;;;;;;17.02;77.47;97958.84;5086539;28;20024;-67
2021/10/05 09:20:28;;;;;;;3.03;2.03;;;;;;;18.15;74.42;97959.34;5086645;28;20047;-67
2021/10/05 09:23:09;;;;;;;4.72;2.40;;;;;;;18.36;71.00;97953.63;5086559;28;20248;-67
2021/10/05 09:25:41;;;;;;;4.53;2.95;;;;;;;18.36;69.22;97952.72;5086420;28;20027;-67
2021/10/05 09:28:25;;;;;;;3.13;2.08;;;;;;;18.31;69.18;97954.78;5086439;28;20215;-67
2021/10/05 09:31:03;;;;;;;4.75;1.90;;;;;;;18.30;70.79;97947.75;5086395;28;20031;-67
2021/10/05 09:33:30;;;;;;;3.83;1.85;;;;;;;17.91;72.27;97956.34;5086215;28;20308;-67
2021/10/05 09:35:56;;;;;;;4.82;1.90;;;;;;;18.83;69.75;97953.34;5086270;28;20043;-67
2021/10/05 09:38:26;;;;;;;2.58;1.85;;;;;;;18.28;71.59;97949.66;5086180;28;20361;-67
2021/10/05 09:41:10;;;;;;;2.58;1.75;;;;;;;18.09;70.02;97944.59;5086199;28;20315;-67
2021/10/05 09:43:36;;;;;;;2.00;1.52;;;;;;;18.01;68.70;97956.66;5086096;28;20023;-67
2021/10/05 09:46:13;;;;;;;2.58;1.45;;;;;;;17.76;73.81;97946.59;5086048;28;20020;-67
2021/10/05 09:48:40;;;;;;;2.05;1.30;;;;;;;18.54;69.75;97948.97;5086003;28;20098;-67
2021/10/05 09:51:20;;;;;;;3.17;1.50;;;;;;;18.29;70.93;97940.72;5084780;28;20024;-67
2021/10/05 09:53:45;;;;;;;7.75;2.38;;;;;;;18.39;70.53;97940.13;5085849;28;20201;-67
2021/10/05 09:56:13;;;;;;;2.42;1.58;;;;;;;18.34;70.18;97935.97;5084873;28;20021;-67
2021/10/05 09:58:39;;;;;;;2.42;1.33;;;;;;;17.60;73.89;97928.97;5085784;28;20212;-67
2021/10/05 10:01:05;;;;;;;2.78;1.40;;;;;;;17.74;73.08;97931.66;5085737;28;20335;-67
2021/10/05 10:03:31;;;;;;;2.05;1.23;;;;;;;18.09;72.76;97922.41;5085480;28;20051;-69
2021/10/05 10:05:59;;;;;;;2.25;1.38;;;;;;;18.78;68.20;97915.44;5085703;28;20024;-68
2021/10/05 10:08:26;;;;;;;2.05;1.15;;;;;;;18.63;69.54;97913.72;5085600;28;20103;-68
2021/10/05 10:10:51;;;;;;;2.22;1.17;;;;;;;19.07;67.32;97903.75;5084367;28;20024;-68
2021/10/05 10:13:19;;;;;;;1.98;1.17;;;;;;;19.45;69.47;97903.97;5085457;28;20021;-68
2021/10/05 10:15:46;;;;;;;1.73;1.15;;;;;;;19.38;65.76;97916.84;5085428;28;20016;-68
2021/10/05 10:18:13;;;;;;;1.67;1.20;;;;;;;18.62;68.08;97917.34;5085406;28;20078;-68
2021/10/05 10:20:41;;;;;;;4.00;1.55;;;;;;;18.78;69.17;97912.75;5085323;28;20024;-68
2021/10/05 10:23:22;;;;;;;2.40;1.10;;;;;;;18.93;67.25;97902.00;5085298;28;20027;-68
2021/10/05 10:26:18;;;;;;;3.40;1.03;;;;;;;18.62;70.74;97906.69;5085269;28;20315;-68
2021/10/05 10:28:45;;;;;;;10.07;1.25;;;;;;;19.44;68.66;97905.78;5084379;28;20257;-68
2021/10/05 10:31:32;;;;;;;4.32;1.00;;;;;;;19.75;65.17;97907.25;5085134;28;20016;-68
2021/10/05 10:33:57;;;;;;;3.72;1.10;;;;;;;19.16;66.63;97908.50;5085008;28;20016;-68
2021/10/05 10:36:33;;;;;;;2.90;1.10;;;;;;;19.34;66.88;97912.69;5085105;28;20258;-68
2021/10/05 10:39:35;;;;;;;1.95;0.90;;;;;;;18.76;67.39;97906.66;5084973;28;20046;-68
2021/10/05 10:42:03;;;;;;;1.90;1.13;;;;;;;19.15;66.81;97896.13;5084954;28;20020;-68
2021/10/05 10:44:38;;;;;;;1.65;0.88;;;;;;;19.42;66.28;97899.66;5084874;28;20021;-68
2021/10/05 10:47:16;;;;;;;2.85;1.00;;;;;;;19.78;66.71;97891.03;5084844;28;20028;-68
2021/10/05 10:49:54;;;;;;;3.25;1.10;;;;;;;19.28;67.17;97886.38;5084849;28;20016;-68
2021/10/05 10:52:24;;;;;;;3.75;0.98;;;;;;;19.50;66.01;97889.34;5084834;28;20047;-68
2021/10/05 10:54:59;;;;;;;2.92;1.13;;;;;;;19.91;65.61;97887.41;5084707;28;20338;-68
2021/10/05 10:57:40;;;;;;;2.42;1.00;;;;;;;19.72;65.41;97886.97;5083541;28;20020;-68
2021/10/05 11:00:13;;;;;;;6.70;1.40;;;;;;;19.60;64.74;97871.75;5084665;28;20069;-68
2021/10/05 11:02:55;;;;;;;5.78;1.10;;;;;;;19.58;65.61;97862.97;5084583;28;20020;-68
2021/10/05 11:05:22;;;;;;;2.65;0.80;;;;;;;20.02;66.87;97863.47;5084409;28;20314;-68
2021/10/05 11:07:56;;;;;;;2.40;0.82;;;;;;;19.65;66.12;97858.09;5084345;28;20097;-68
2021/10/05 11:10:31;;;;;;;6.90;0.90;;;;;;;18.93;68.22;97863.78;5084477;28;20017;-68
2021/10/05 11:13:01;;;;;;;5.88;1.35;;;;;;;18.72;66.44;97857.16;5083233;28;20028;-68
2021/10/05 11:15:31;;;;;;;4.20;1.10;;;;;;;19.48;65.45;97853.03;5084362;28;20248;-68
2021/10/05 11:18:24;;;;;;;12.40;1.25;;;;;;;19.16;64.25;97844.47;5083148;28;20016;-68
2021/10/05 11:20:57;;;;;;;2.55;1.25;;;;;;;19.41;65.16;97847.25;5082361;28;20036;-68
2021/10/05 11:23:28;;;;;;;2.60;0.80;;;;;;;19.47;64.08;97849.53;5083087;28;20020;-68
2021/10/05 11:25:56;;;;;;;6.13;0.90;;;;;;;19.23;63.33;97835.09;5084278;28;20091;-68
2021/10/05 11:28:25;;;;;;;8.70;1.10;;;;;;;19.15;64.22;97834.78;5084235;28;20017;-68